sensor_id;sensor_type;location;lat;lon;timestamp;temperature;humidity
26691;DHT22;14307;51.718;8.938;2023-07-13T00:01:53;15.70;99.90
26691;DHT22;14307;51.718;8.938;2023-07-13T00:04:22;15.60;99.90
26691;DHT22;14307;51.718;8.938;2023-07-13T00:06:49;15.40;99.90
26691;DHT22;14307;51.718;8.938;2023-07-13T00:09:17;15.40;99.90
26691;DHT22;14307;51.718;8.938;2023-07-13T00:11:45;15.30;99.90
26691;DHT22;14307;51.718;8.938;2023-07-13T00:14:14;15.10;99.90
26691;DHT22;14307;51.718;8.938;2023-07-13T00:16:42;15.00;99.90
26691;DHT22;14307;51.718;8.938;2023-07-13T00:19:11;15.00;99.90
26691;DHT22;14307;51.718;8.938;2023-07-13T00:21:39;15.00;99.90
26691;DHT22;14307;51.718;8.938;2023-07-13T00:24:11;14.90;99.90
26691;DHT22;14307;51.718;8.938;2023-07-13T00:26:42;14.80;99.90
26691;DHT22;14307;51.718;8.938;2023-07-13T00:29:12;14.80;99.90
26691;DHT22;14307;51.718;8.938;2023-07-13T00:31:40;14.80;99.90
26691;DHT22;14307;51.718;8.938;2023-07-13T00:34:07;14.90;99.90
26691;DHT22;14307;51.718;8.938;2023-07-13T00:36:33;14.90;99.90
26691;DHT22;14307;51.718;8.938;2023-07-13T00:39:01;14.90;99.90
26691;DHT22;14307;51.718;8.938;2023-07-13T00:41:27;14.90;99.90
26691;DHT22;14307;51.718;8.938;2023-07-13T00:43:55;14.90;99.90
26691;DHT22;14307;51.718;8.938;2023-07-13T00:46:27;14.80;99.90
26691;DHT22;14307;51.718;8.938;2023-07-13T00:48:57;14.70;99.90
26691;DHT22;14307;51.718;8.938;2023-07-13T00:54:21;14.70;99.90
26691;DHT22;14307;51.718;8.938;2023-07-13T00:56:52;14.60;99.90
26691;DHT22;14307;51.718;8.938;2023-07-13T00:59:21;14.60;99.90
26691;DHT22;14307;51.718;8.938;2023-07-13T01:01:48;14.50;99.90
26691;DHT22;14307;51.718;8.938;2023-07-13T01:04:17;14.40;99.90
26691;DHT22;14307;51.718;8.938;2023-07-13T01:06:45;14.20;99.90
26691;DHT22;14307;51.718;8.938;2023-07-13T01:09:14;14.00;99.90
26691;DHT22;14307;51.718;8.938;2023-07-13T01:11:42;14.00;99.90
26691;DHT22;14307;51.718;8.938;2023-07-13T01:14:09;14.00;99.90
26691;DHT22;14307;51.718;8.938;2023-07-13T01:16:37;13.80;99.90
26691;DHT22;14307;51.718;8.938;2023-07-13T01:19:19;13.70;99.90
26691;DHT22;14307;51.718;8.938;2023-07-13T01:21:50;13.60;99.90
26691;DHT22;14307;51.718;8.938;2023-07-13T01:24:17;13.60;99.90
26691;DHT22;14307;51.718;8.938;2023-07-13T01:26:44;13.60;99.90
26691;DHT22;14307;51.718;8.938;2023-07-13T01:29:10;13.60;99.90
26691;DHT22;14307;51.718;8.938;2023-07-13T01:31:38;13.80;99.90
26691;DHT22;14307;51.718;8.938;2023-07-13T01:34:05;13.70;99.90
26691;DHT22;14307;51.718;8.938;2023-07-13T01:36:32;13.70;99.90
26691;DHT22;14307;51.718;8.938;2023-07-13T01:38:59;13.70;99.90
26691;DHT22;14307;51.718;8.938;2023-07-13T01:41:27;13.60;99.90
26691;DHT22;14307;51.718;8.938;2023-07-13T01:43:53;13.50;99.90
26691;DHT22;14307;51.718;8.938;2023-07-13T01:46:20;13.40;99.90
26691;DHT22;14307;51.718;8.938;2023-07-13T01:48:50;13.30;99.90
26691;DHT22;14307;51.718;8.938;2023-07-13T01:51:18;13.40;99.90
26691;DHT22;14307;51.718;8.938;2023-07-13T01:53:45;13.40;99.90
26691;DHT22;14307;51.718;8.938;2023-07-13T01:56:12;13.40;99.90
26691;DHT22;14307;51.718;8.938;2023-07-13T01:58:40;13.30;99.90
26691;DHT22;14307;51.718;8.938;2023-07-13T02:01:06;13.30;99.90
26691;DHT22;14307;51.718;8.938;2023-07-13T02:03:33;13.30;99.90
26691;DHT22;14307;51.718;8.938;2023-07-13T02:06:00;13.50;99.90
26691;DHT22;14307;51.718;8.938;2023-07-13T02:08:27;13.40;99.90
26691;DHT22;14307;51.718;8.938;2023-07-13T02:10:54;13.40;99.90
26691;DHT22;14307;51.718;8.938;2023-07-13T02:13:21;13.40;99.90
26691;DHT22;14307;51.718;8.938;2023-07-13T02:15:50;13.40;99.90
26691;DHT22;14307;51.718;8.938;2023-07-13T02:18:19;13.40;99.90
26691;DHT22;14307;51.718;8.938;2023-07-13T02:20:46;13.30;99.90
26691;DHT22;14307;51.718;8.938;2023-07-13T02:23:12;13.40;99.90
26691;DHT22;14307;51.718;8.938;2023-07-13T02:25:39;13.40;99.90
26691;DHT22;14307;51.718;8.938;2023-07-13T02:28:07;13.50;99.90
26691;DHT22;14307;51.718;8.938;2023-07-13T02:30:34;13.40;99.90
26691;DHT22;14307;51.718;8.938;2023-07-13T02:33:01;13.40;99.90
26691;DHT22;14307;51.718;8.938;2023-07-13T02:35:28;13.50;99.90
26691;DHT22;14307;51.718;8.938;2023-07-13T02:37:57;13.50;99.90
26691;DHT22;14307;51.718;8.938;2023-07-13T02:40:24;13.50;99.90
26691;DHT22;14307;51.718;8.938;2023-07-13T02:42:51;13.60;99.90
26691;DHT22;14307;51.718;8.938;2023-07-13T02:45:20;13.60;99.90
26691;DHT22;14307;51.718;8.938;2023-07-13T02:47:47;13.50;99.90
26691;DHT22;14307;51.718;8.938;2023-07-13T02:50:14;13.50;99.90
26691;DHT22;14307;51.718;8.938;2023-07-13T02:52:41;13.50;99.90
26691;DHT22;14307;51.718;8.938;2023-07-13T02:55:08;13.60;99.90
26691;DHT22;14307;51.718;8.938;2023-07-13T02:57:37;13.60;99.90
26691;DHT22;14307;51.718;8.938;2023-07-13T03:00:05;13.50;99.90
26691;DHT22;14307;51.718;8.938;2023-07-13T03:02:33;13.50;99.90
26691;DHT22;14307;51.718;8.938;2023-07-13T03:05:01;13.50;99.90
26691;DHT22;14307;51.718;8.938;2023-07-13T03:07:28;13.40;99.90
26691;DHT22;14307;51.718;8.938;2023-07-13T03:09:56;13.40;99.90
26691;DHT22;14307;51.718;8.938;2023-07-13T03:12:27;13.40;99.90
26691;DHT22;14307;51.718;8.938;2023-07-13T03:14:54;13.40;99.90
26691;DHT22;14307;51.718;8.938;2023-07-13T03:17:22;13.40;99.90
26691;DHT22;14307;51.718;8.938;2023-07-13T03:19:48;13.50;99.90
26691;DHT22;14307;51.718;8.938;2023-07-13T03:22:18;13.50;99.90
26691;DHT22;14307;51.718;8.938;2023-07-13T03:24:47;13.50;99.90
26691;DHT22;14307;51.718;8.938;2023-07-13T03:27:16;13.50;99.90
26691;DHT22;14307;51.718;8.938;2023-07-13T03:29:45;13.60;99.90
26691;DHT22;14307;51.718;8.938;2023-07-13T03:32:13;13.60;99.90
26691;DHT22;14307;51.718;8.938;2023-07-13T03:34:40;13.50;99.90
26691;DHT22;14307;51.718;8.938;2023-07-13T03:37:06;13.60;99.90
26691;DHT22;14307;51.718;8.938;2023-07-13T03:39:35;13.50;99.90
26691;DHT22;14307;51.718;8.938;2023-07-13T03:42:02;13.50;99.90
26691;DHT22;14307;51.718;8.938;2023-07-13T03:44:29;13.50;99.90
26691;DHT22;14307;51.718;8.938;2023-07-13T03:46:56;13.50;99.90
26691;DHT22;14307;51.718;8.938;2023-07-13T03:49:23;13.50;99.90
26691;DHT22;14307;51.718;8.938;2023-07-13T03:51:50;13.50;99.90
26691;DHT22;14307;51.718;8.938;2023-07-13T03:54:20;13.50;99.90
26691;DHT22;14307;51.718;8.938;2023-07-13T03:56:47;13.50;99.90
26691;DHT22;14307;51.718;8.938;2023-07-13T03:59:15;13.50;99.90
26691;DHT22;14307;51.718;8.938;2023-07-13T04:01:43;13.50;99.90
26691;DHT22;14307;51.718;8.938;2023-07-13T04:04:11;13.50;99.90
26691;DHT22;14307;51.718;8.938;2023-07-13T04:06:38;13.50;99.90
26691;DHT22;14307;51.718;8.938;2023-07-13T04:09:05;13.50;99.90
26691;DHT22;14307;51.718;8.938;2023-07-13T04:11:33;13.50;99.90
26691;DHT22;14307;51.718;8.938;2023-07-13T04:14:00;13.50;99.90
26691;DHT22;14307;51.718;8.938;2023-07-13T04:16:26;13.50;99.90
26691;DHT22;14307;51.718;8.938;2023-07-13T04:18:54;13.60;99.90
26691;DHT22;14307;51.718;8.938;2023-07-13T04:21:24;13.60;99.90
26691;DHT22;14307;51.718;8.938;2023-07-13T04:23:50;13.60;99.90
26691;DHT22;14307;51.718;8.938;2023-07-13T04:26:17;13.70;99.90
26691;DHT22;14307;51.718;8.938;2023-07-13T04:28:47;13.70;99.90
26691;DHT22;14307;51.718;8.938;2023-07-13T04:31:14;13.70;99.90
26691;DHT22;14307;51.718;8.938;2023-07-13T04:33:41;13.80;99.90
26691;DHT22;14307;51.718;8.938;2023-07-13T04:36:09;13.90;99.90
26691;DHT22;14307;51.718;8.938;2023-07-13T04:38:36;13.90;99.90
26691;DHT22;14307;51.718;8.938;2023-07-13T04:41:06;14.00;99.90
26691;DHT22;14307;51.718;8.938;2023-07-13T04:43:33;14.20;99.90
26691;DHT22;14307;51.718;8.938;2023-07-13T04:46:09;14.30;99.90
26691;DHT22;14307;51.718;8.938;2023-07-13T04:48:38;14.50;99.90
26691;DHT22;14307;51.718;8.938;2023-07-13T04:51:05;14.50;99.90
26691;DHT22;14307;51.718;8.938;2023-07-13T04:53:32;14.60;99.90
26691;DHT22;14307;51.718;8.938;2023-07-13T04:56:01;14.80;99.90
26691;DHT22;14307;51.718;8.938;2023-07-13T04:58:28;14.90;99.90
26691;DHT22;14307;51.718;8.938;2023-07-13T05:01:05;15.00;99.90
26691;DHT22;14307;51.718;8.938;2023-07-13T05:03:33;15.10;99.90
26691;DHT22;14307;51.718;8.938;2023-07-13T05:06:04;15.20;99.90
26691;DHT22;14307;51.718;8.938;2023-07-13T05:08:31;15.30;99.90
26691;DHT22;14307;51.718;8.938;2023-07-13T05:11:00;15.40;99.90
26691;DHT22;14307;51.718;8.938;2023-07-13T05:13:27;15.60;99.90
26691;DHT22;14307;51.718;8.938;2023-07-13T05:16:01;15.80;99.90
26691;DHT22;14307;51.718;8.938;2023-07-13T05:18:29;16.00;99.90
26691;DHT22;14307;51.718;8.938;2023-07-13T05:23:29;16.30;99.90
26691;DHT22;14307;51.718;8.938;2023-07-13T05:25:56;16.50;99.90
26691;DHT22;14307;51.718;8.938;2023-07-13T05:28:23;16.50;99.90
26691;DHT22;14307;51.718;8.938;2023-07-13T05:30:50;16.40;99.90
26691;DHT22;14307;51.718;8.938;2023-07-13T05:33:17;16.50;99.90
26691;DHT22;14307;51.718;8.938;2023-07-13T05:35:44;16.60;99.90
26691;DHT22;14307;51.718;8.938;2023-07-13T05:38:10;16.90;99.90
26691;DHT22;14307;51.718;8.938;2023-07-13T05:40:37;17.00;99.90
26691;DHT22;14307;51.718;8.938;2023-07-13T05:43:04;16.90;99.90
26691;DHT22;14307;51.718;8.938;2023-07-13T05:45:31;16.90;99.90
26691;DHT22;14307;51.718;8.938;2023-07-13T05:47:58;17.00;99.90
26691;DHT22;14307;51.718;8.938;2023-07-13T05:50:26;17.20;99.90
26691;DHT22;14307;51.718;8.938;2023-07-13T05:52:53;17.30;99.90
26691;DHT22;14307;51.718;8.938;2023-07-13T05:55:20;17.20;99.90
26691;DHT22;14307;51.718;8.938;2023-07-13T05:57:47;17.30;99.90
26691;DHT22;14307;51.718;8.938;2023-07-13T06:00:14;17.30;99.90
26691;DHT22;14307;51.718;8.938;2023-07-13T06:02:42;17.30;99.90
26691;DHT22;14307;51.718;8.938;2023-07-13T06:05:09;17.30;99.90
26691;DHT22;14307;51.718;8.938;2023-07-13T06:07:36;17.30;99.90
26691;DHT22;14307;51.718;8.938;2023-07-13T06:10:03;17.30;99.90
26691;DHT22;14307;51.718;8.938;2023-07-13T06:12:29;17.20;99.90
26691;DHT22;14307;51.718;8.938;2023-07-13T06:14:57;17.40;99.90
26691;DHT22;14307;51.718;8.938;2023-07-13T06:17:23;17.50;99.90
26691;DHT22;14307;51.718;8.938;2023-07-13T06:19:50;17.50;99.90
26691;DHT22;14307;51.718;8.938;2023-07-13T06:22:17;17.60;99.90
26691;DHT22;14307;51.718;8.938;2023-07-13T06:24:44;17.70;99.90
26691;DHT22;14307;51.718;8.938;2023-07-13T06:27:11;17.60;99.90
26691;DHT22;14307;51.718;8.938;2023-07-13T06:29:37;17.90;99.90
26691;DHT22;14307;51.718;8.938;2023-07-13T06:32:05;18.00;99.90
26691;DHT22;14307;51.718;8.938;2023-07-13T06:34:32;18.00;99.90
26691;DHT22;14307;51.718;8.938;2023-07-13T06:36:59;18.00;99.90
26691;DHT22;14307;51.718;8.938;2023-07-13T06:39:25;18.10;99.90
26691;DHT22;14307;51.718;8.938;2023-07-13T06:41:52;18.10;99.90
26691;DHT22;14307;51.718;8.938;2023-07-13T06:44:19;18.00;99.90
26691;DHT22;14307;51.718;8.938;2023-07-13T06:46:45;18.00;99.90
26691;DHT22;14307;51.718;8.938;2023-07-13T06:49:12;17.90;99.90
26691;DHT22;14307;51.718;8.938;2023-07-13T06:51:39;17.50;99.90
26691;DHT22;14307;51.718;8.938;2023-07-13T06:54:06;17.40;99.90
26691;DHT22;14307;51.718;8.938;2023-07-13T06:56:32;17.70;99.90
26691;DHT22;14307;51.718;8.938;2023-07-13T06:58:59;17.70;99.90
26691;DHT22;14307;51.718;8.938;2023-07-13T07:01:26;17.60;99.90
26691;DHT22;14307;51.718;8.938;2023-07-13T07:03:53;17.80;99.90
26691;DHT22;14307;51.718;8.938;2023-07-13T07:06:22;18.10;99.90
26691;DHT22;14307;51.718;8.938;2023-07-13T07:08:51;18.10;99.90
26691;DHT22;14307;51.718;8.938;2023-07-13T07:11:23;18.10;99.90
26691;DHT22;14307;51.718;8.938;2023-07-13T07:13:52;18.00;99.90
26691;DHT22;14307;51.718;8.938;2023-07-13T07:16:19;18.00;99.90
26691;DHT22;14307;51.718;8.938;2023-07-13T07:18:47;18.00;99.90
26691;DHT22;14307;51.718;8.938;2023-07-13T07:21:14;17.90;99.90
26691;DHT22;14307;51.718;8.938;2023-07-13T07:23:42;17.70;99.90
26691;DHT22;14307;51.718;8.938;2023-07-13T07:26:09;17.60;99.90
26691;DHT22;14307;51.718;8.938;2023-07-13T07:28:37;17.50;99.90
26691;DHT22;14307;51.718;8.938;2023-07-13T07:31:06;17.60;99.90
26691;DHT22;14307;51.718;8.938;2023-07-13T07:33:36;17.80;99.90
26691;DHT22;14307;51.718;8.938;2023-07-13T07:36:03;18.00;99.90
26691;DHT22;14307;51.718;8.938;2023-07-13T07:38:33;18.20;99.90
26691;DHT22;14307;51.718;8.938;2023-07-13T07:41:03;18.10;99.90
26691;DHT22;14307;51.718;8.938;2023-07-13T07:43:33;18.40;99.90
26691;DHT22;14307;51.718;8.938;2023-07-13T07:46:01;18.70;99.90
26691;DHT22;14307;51.718;8.938;2023-07-13T07:48:29;18.70;99.90
26691;DHT22;14307;51.718;8.938;2023-07-13T07:50:56;18.70;99.90
26691;DHT22;14307;51.718;8.938;2023-07-13T07:53:23;18.70;99.90
26691;DHT22;14307;51.718;8.938;2023-07-13T07:55:50;18.80;99.90
26691;DHT22;14307;51.718;8.938;2023-07-13T07:58:21;18.60;99.90
26691;DHT22;14307;51.718;8.938;2023-07-13T08:00:51;18.60;99.90
26691;DHT22;14307;51.718;8.938;2023-07-13T08:03:20;18.60;99.90
26691;DHT22;14307;51.718;8.938;2023-07-13T08:05:53;18.80;99.90
26691;DHT22;14307;51.718;8.938;2023-07-13T08:08:23;18.80;99.90
26691;DHT22;14307;51.718;8.938;2023-07-13T08:10:50;18.70;99.90
26691;DHT22;14307;51.718;8.938;2023-07-13T08:13:20;18.80;99.90
26691;DHT22;14307;51.718;8.938;2023-07-13T08:15:47;19.00;99.90
26691;DHT22;14307;51.718;8.938;2023-07-13T08:18:14;19.20;99.90
26691;DHT22;14307;51.718;8.938;2023-07-13T08:20:42;19.40;99.90
26691;DHT22;14307;51.718;8.938;2023-07-13T08:23:10;19.40;99.90
26691;DHT22;14307;51.718;8.938;2023-07-13T08:25:37;19.50;99.90
26691;DHT22;14307;51.718;8.938;2023-07-13T08:28:04;19.30;99.90
26691;DHT22;14307;51.718;8.938;2023-07-13T08:30:31;19.30;99.90
26691;DHT22;14307;51.718;8.938;2023-07-13T08:32:57;19.30;99.90
26691;DHT22;14307;51.718;8.938;2023-07-13T08:35:24;19.20;99.90
26691;DHT22;14307;51.718;8.938;2023-07-13T08:37:52;19.10;99.90
26691;DHT22;14307;51.718;8.938;2023-07-13T08:40:24;19.00;99.90
26691;DHT22;14307;51.718;8.938;2023-07-13T08:42:57;19.00;99.90
26691;DHT22;14307;51.718;8.938;2023-07-13T08:45:47;18.90;99.90
26691;DHT22;14307;51.718;8.938;2023-07-13T08:48:25;18.90;99.90
26691;DHT22;14307;51.718;8.938;2023-07-13T08:51:00;19.00;99.90
26691;DHT22;14307;51.718;8.938;2023-07-13T08:53:36;19.30;99.90
26691;DHT22;14307;51.718;8.938;2023-07-13T08:56:09;19.60;99.90
26691;DHT22;14307;51.718;8.938;2023-07-13T08:58:38;19.90;99.90
26691;DHT22;14307;51.718;8.938;2023-07-13T09:01:28;19.90;99.90
26691;DHT22;14307;51.718;8.938;2023-07-13T09:06:44;19.70;99.90
26691;DHT22;14307;51.718;8.938;2023-07-13T09:12:20;20.50;99.90
26691;DHT22;14307;51.718;8.938;2023-07-13T09:14:52;20.70;99.90
26691;DHT22;14307;51.718;8.938;2023-07-13T09:17:28;20.30;99.90
26691;DHT22;14307;51.718;8.938;2023-07-13T09:20:28;20.20;99.90
26691;DHT22;14307;51.718;8.938;2023-07-13T09:22:56;20.00;99.90
26691;DHT22;14307;51.718;8.938;2023-07-13T09:25:34;19.70;99.90
26691;DHT22;14307;51.718;8.938;2023-07-13T09:28:12;20.00;99.90
26691;DHT22;14307;51.718;8.938;2023-07-13T09:30:51;20.30;99.90
26691;DHT22;14307;51.718;8.938;2023-07-13T09:33:20;20.50;99.90
26691;DHT22;14307;51.718;8.938;2023-07-13T09:35:47;20.90;99.90
26691;DHT22;14307;51.718;8.938;2023-07-13T09:38:16;21.00;99.90
26691;DHT22;14307;51.718;8.938;2023-07-13T09:44:10;20.40;99.90
26691;DHT22;14307;51.718;8.938;2023-07-13T09:46:43;20.30;99.90
26691;DHT22;14307;51.718;8.938;2023-07-13T09:49:10;20.40;99.90
26691;DHT22;14307;51.718;8.938;2023-07-13T09:51:40;20.60;99.90
26691;DHT22;14307;51.718;8.938;2023-07-13T09:54:21;20.80;99.90
26691;DHT22;14307;51.718;8.938;2023-07-13T09:56:58;20.80;99.90
26691;DHT22;14307;51.718;8.938;2023-07-13T09:59:34;20.70;99.90
26691;DHT22;14307;51.718;8.938;2023-07-13T10:02:01;21.20;99.90
26691;DHT22;14307;51.718;8.938;2023-07-13T10:04:32;21.00;99.90
26691;DHT22;14307;51.718;8.938;2023-07-13T10:07:12;20.70;99.90
26691;DHT22;14307;51.718;8.938;2023-07-13T10:09:57;20.80;99.90
26691;DHT22;14307;51.718;8.938;2023-07-13T10:12:24;20.60;99.90
26691;DHT22;14307;51.718;8.938;2023-07-13T10:14:55;20.60;99.90
26691;DHT22;14307;51.718;8.938;2023-07-13T10:17:43;20.70;99.90
26691;DHT22;14307;51.718;8.938;2023-07-13T10:20:11;21.30;99.90
26691;DHT22;14307;51.718;8.938;2023-07-13T10:22:47;22.00;99.90
26691;DHT22;14307;51.718;8.938;2023-07-13T10:25:20;21.90;99.90
26691;DHT22;14307;51.718;8.938;2023-07-13T10:27:54;21.90;99.90
26691;DHT22;14307;51.718;8.938;2023-07-13T10:30:32;22.00;99.90
26691;DHT22;14307;51.718;8.938;2023-07-13T10:33:03;22.30;99.90
26691;DHT22;14307;51.718;8.938;2023-07-13T10:35:32;22.00;99.90
26691;DHT22;14307;51.718;8.938;2023-07-13T10:38:10;21.90;99.90
26691;DHT22;14307;51.718;8.938;2023-07-13T10:40:41;22.00;99.90
26691;DHT22;14307;51.718;8.938;2023-07-13T10:43:22;22.10;99.90
26691;DHT22;14307;51.718;8.938;2023-07-13T10:45:50;22.40;99.90
26691;DHT22;14307;51.718;8.938;2023-07-13T10:48:18;22.50;99.90
26691;DHT22;14307;51.718;8.938;2023-07-13T10:50:49;22.10;99.90
26691;DHT22;14307;51.718;8.938;2023-07-13T10:53:31;21.90;99.90
26691;DHT22;14307;51.718;8.938;2023-07-13T10:58:42;21.70;99.90
26691;DHT22;14307;51.718;8.938;2023-07-13T11:01:13;21.40;99.90
26691;DHT22;14307;51.718;8.938;2023-07-13T11:06:12;21.90;99.90
26691;DHT22;14307;51.718;8.938;2023-07-13T11:11:34;21.90;99.90
26691;DHT22;14307;51.718;8.938;2023-07-13T11:14:05;21.70;99.90
26691;DHT22;14307;51.718;8.938;2023-07-13T11:16:51;21.40;99.90
26691;DHT22;14307;51.718;8.938;2023-07-13T11:24:59;22.20;99.90
26691;DHT22;14307;51.718;8.938;2023-07-13T11:27:42;22.70;99.90
26691;DHT22;14307;51.718;8.938;2023-07-13T11:32:45;23.30;99.90
26691;DHT22;14307;51.718;8.938;2023-07-13T11:35:22;23.30;99.90
26691;DHT22;14307;51.718;8.938;2023-07-13T11:37:51;23.00;99.90
26691;DHT22;14307;51.718;8.938;2023-07-13T11:40:18;22.60;99.90
26691;DHT22;14307;51.718;8.938;2023-07-13T11:42:44;22.20;99.90
26691;DHT22;14307;51.718;8.938;2023-07-13T11:45:21;22.00;99.90
26691;DHT22;14307;51.718;8.938;2023-07-13T11:48:01;22.10;99.90
26691;DHT22;14307;51.718;8.938;2023-07-13T11:50:28;22.20;99.90
26691;DHT22;14307;51.718;8.938;2023-07-13T11:52:58;22.20;99.90
26691;DHT22;14307;51.718;8.938;2023-07-13T11:55:26;21.90;99.90
26691;DHT22;14307;51.718;8.938;2023-07-13T11:57:59;21.90;99.90
26691;DHT22;14307;51.718;8.938;2023-07-13T12:00:29;22.20;99.90
26691;DHT22;14307;51.718;8.938;2023-07-13T12:03:02;22.40;99.90
26691;DHT22;14307;51.718;8.938;2023-07-13T12:05:31;22.30;99.90
26691;DHT22;14307;51.718;8.938;2023-07-13T12:07:59;22.00;99.90
26691;DHT22;14307;51.718;8.938;2023-07-13T12:10:34;21.80;99.90
26691;DHT22;14307;51.718;8.938;2023-07-13T12:13:04;22.10;99.90
26691;DHT22;14307;51.718;8.938;2023-07-13T12:18:24;22.30;99.90
26691;DHT22;14307;51.718;8.938;2023-07-13T12:20:58;22.20;99.90
26691;DHT22;14307;51.718;8.938;2023-07-13T12:23:32;22.10;99.90
26691;DHT22;14307;51.718;8.938;2023-07-13T12:26:02;22.00;99.90
26691;DHT22;14307;51.718;8.938;2023-07-13T12:28:47;22.20;99.90
26691;DHT22;14307;51.718;8.938;2023-07-13T12:36:29;22.00;99.90
26691;DHT22;14307;51.718;8.938;2023-07-13T12:39:02;21.90;99.90
26691;DHT22;14307;51.718;8.938;2023-07-13T12:41:31;21.80;99.90
26691;DHT22;14307;51.718;8.938;2023-07-13T12:43:59;22.10;99.90
26691;DHT22;14307;51.718;8.938;2023-07-13T12:46:26;21.90;99.90
26691;DHT22;14307;51.718;8.938;2023-07-13T12:48:57;21.60;99.90
26691;DHT22;14307;51.718;8.938;2023-07-13T12:51:43;21.50;99.90
26691;DHT22;14307;51.718;8.938;2023-07-13T12:54:16;21.40;99.90
26691;DHT22;14307;51.718;8.938;2023-07-13T12:56:43;21.40;99.90
26691;DHT22;14307;51.718;8.938;2023-07-13T12:59:17;21.40;99.90
26691;DHT22;14307;51.718;8.938;2023-07-13T13:01:46;21.50;99.90
26691;DHT22;14307;51.718;8.938;2023-07-13T13:04:17;21.50;99.90
26691;DHT22;14307;51.718;8.938;2023-07-13T13:06:49;21.50;99.90
26691;DHT22;14307;51.718;8.938;2023-07-13T13:09:27;21.40;99.90
26691;DHT22;14307;51.718;8.938;2023-07-13T13:11:54;21.70;99.90
26691;DHT22;14307;51.718;8.938;2023-07-13T13:14:21;21.90;99.90
26691;DHT22;14307;51.718;8.938;2023-07-13T13:16:50;22.00;99.90
26691;DHT22;14307;51.718;8.938;2023-07-13T13:19:24;22.10;99.90
26691;DHT22;14307;51.718;8.938;2023-07-13T13:21:53;22.00;99.90
26691;DHT22;14307;51.718;8.938;2023-07-13T13:24:23;22.10;99.90
26691;DHT22;14307;51.718;8.938;2023-07-13T13:26:52;22.10;99.90
26691;DHT22;14307;51.718;8.938;2023-07-13T13:29:22;22.20;99.90
26691;DHT22;14307;51.718;8.938;2023-07-13T13:31:53;22.40;99.90
26691;DHT22;14307;51.718;8.938;2023-07-13T13:34:22;22.00;99.90
26691;DHT22;14307;51.718;8.938;2023-07-13T13:36:54;21.70;99.90
26691;DHT22;14307;51.718;8.938;2023-07-13T13:39:32;21.40;99.90
26691;DHT22;14307;51.718;8.938;2023-07-13T13:42:00;21.60;99.90
26691;DHT22;14307;51.718;8.938;2023-07-13T13:44:27;21.80;99.90
26691;DHT22;14307;51.718;8.938;2023-07-13T13:46:55;22.20;99.90
26691;DHT22;14307;51.718;8.938;2023-07-13T13:49:25;22.70;99.90
26691;DHT22;14307;51.718;8.938;2023-07-13T13:51:52;22.80;99.90
26691;DHT22;14307;51.718;8.938;2023-07-13T13:54:21;23.30;99.90
26691;DHT22;14307;51.718;8.938;2023-07-13T13:56:50;23.50;99.90
26691;DHT22;14307;51.718;8.938;2023-07-13T13:59:18;23.50;99.90
26691;DHT22;14307;51.718;8.938;2023-07-13T14:01:46;23.30;99.90
26691;DHT22;14307;51.718;8.938;2023-07-13T14:04:18;23.10;99.90
26691;DHT22;14307;51.718;8.938;2023-07-13T14:06:46;23.00;99.90
26691;DHT22;14307;51.718;8.938;2023-07-13T14:09:15;23.00;99.90
26691;DHT22;14307;51.718;8.938;2023-07-13T14:11:42;22.90;99.90
26691;DHT22;14307;51.718;8.938;2023-07-13T14:14:20;23.10;99.90
26691;DHT22;14307;51.718;8.938;2023-07-13T14:16:48;23.20;99.90
26691;DHT22;14307;51.718;8.938;2023-07-13T14:19:20;23.30;99.90
26691;DHT22;14307;51.718;8.938;2023-07-13T14:21:47;23.50;99.90
26691;DHT22;14307;51.718;8.938;2023-07-13T14:24:15;23.30;99.90
26691;DHT22;14307;51.718;8.938;2023-07-13T14:26:42;23.40;99.90
26691;DHT22;14307;51.718;8.938;2023-07-13T14:29:18;23.60;99.90
26691;DHT22;14307;51.718;8.938;2023-07-13T14:31:50;23.50;99.90
26691;DHT22;14307;51.718;8.938;2023-07-13T14:34:17;23.50;99.90
26691;DHT22;14307;51.718;8.938;2023-07-13T14:36:45;23.30;99.90
26691;DHT22;14307;51.718;8.938;2023-07-13T14:39:17;22.90;99.90
26691;DHT22;14307;51.718;8.938;2023-07-13T14:41:45;23.20;99.90
26691;DHT22;14307;51.718;8.938;2023-07-13T14:44:13;23.20;99.90
26691;DHT22;14307;51.718;8.938;2023-07-13T14:46:40;23.20;99.90
26691;DHT22;14307;51.718;8.938;2023-07-13T14:49:20;22.90;99.90
26691;DHT22;14307;51.718;8.938;2023-07-13T14:51:48;22.80;99.90
26691;DHT22;14307;51.718;8.938;2023-07-13T14:54:15;22.70;99.90
26691;DHT22;14307;51.718;8.938;2023-07-13T14:56:42;22.80;99.90
26691;DHT22;14307;51.718;8.938;2023-07-13T14:59:09;23.00;99.90
26691;DHT22;14307;51.718;8.938;2023-07-13T15:01:36;22.90;99.90
26691;DHT22;14307;51.718;8.938;2023-07-13T15:04:04;22.70;99.90
26691;DHT22;14307;51.718;8.938;2023-07-13T15:06:35;22.60;99.90
26691;DHT22;14307;51.718;8.938;2023-07-13T15:09:18;22.40;99.90
26691;DHT22;14307;51.718;8.938;2023-07-13T15:11:45;22.30;99.90
26691;DHT22;14307;51.718;8.938;2023-07-13T15:14:12;22.20;99.90
26691;DHT22;14307;51.718;8.938;2023-07-13T15:16:39;22.00;99.90
26691;DHT22;14307;51.718;8.938;2023-07-13T15:19:09;21.90;99.90
26691;DHT22;14307;51.718;8.938;2023-07-13T15:21:37;21.50;99.90
26691;DHT22;14307;51.718;8.938;2023-07-13T15:24:04;20.90;99.90
26691;DHT22;14307;51.718;8.938;2023-07-13T15:26:34;20.40;99.90
26691;DHT22;14307;51.718;8.938;2023-07-13T15:29:02;19.80;99.90
26691;DHT22;14307;51.718;8.938;2023-07-13T15:31:29;19.40;99.90
26691;DHT22;14307;51.718;8.938;2023-07-13T15:33:59;19.00;99.90
26691;DHT22;14307;51.718;8.938;2023-07-13T15:36:26;18.50;99.90
26691;DHT22;14307;51.718;8.938;2023-07-13T15:38:55;18.40;99.90
26691;DHT22;14307;51.718;8.938;2023-07-13T15:41:26;18.30;99.90
26691;DHT22;14307;51.718;8.938;2023-07-13T15:43:55;17.90;99.90
26691;DHT22;14307;51.718;8.938;2023-07-13T15:46:27;17.40;99.90
26691;DHT22;14307;51.718;8.938;2023-07-13T15:48:57;17.10;99.90
26691;DHT22;14307;51.718;8.938;2023-07-13T15:53:58;16.70;99.90
26691;DHT22;14307;51.718;8.938;2023-07-13T15:56:27;16.40;99.90
26691;DHT22;14307;51.718;8.938;2023-07-13T15:58:56;16.00;99.90
26691;DHT22;14307;51.718;8.938;2023-07-13T16:01:24;15.50;99.90
26691;DHT22;14307;51.718;8.938;2023-07-13T16:03:51;15.50;99.90
26691;DHT22;14307;51.718;8.938;2023-07-13T16:06:36;15.30;99.90
26691;DHT22;14307;51.718;8.938;2023-07-13T16:09:06;15.00;99.90
26691;DHT22;14307;51.718;8.938;2023-07-13T16:11:38;14.90;99.90
26691;DHT22;14307;51.718;8.938;2023-07-13T16:14:06;14.90;99.90
26691;DHT22;14307;51.718;8.938;2023-07-13T16:16:34;14.90;99.90
26691;DHT22;14307;51.718;8.938;2023-07-13T16:19:05;15.00;99.90
26691;DHT22;14307;51.718;8.938;2023-07-13T16:21:35;14.90;99.90
26691;DHT22;14307;51.718;8.938;2023-07-13T16:24:04;15.00;99.90
26691;DHT22;14307;51.718;8.938;2023-07-13T16:26:34;15.10;99.90